Airfield :
LOGIN :

Register | Disclaimer

   EN    FR    IT 

 










Legend :    VFR   Marginal VFR   IFR   Intensive IFR   Very Intensive IFR
Visi :
Ceiling :
>= 8 km
>= 3000ft
5 to 8 km
1000 to 3000 ft
1500m to 5 km
500 to 1000 ft
800 to 1500m
200 to 500 ft
< 800m
< 200 ft
Symbols :   Thunderstorms  Fog  Heavy snow  Heavy precipitations  Wind > 20 kt
SIGMETs :     Misc.  Thunderstorms  Icing  Turbulence  Mountain Waves  Volcanic Ashes







- Airport Elevation : 2625 ft
- IATA code : LEU


LESU - Aeròdrom dels Pirineus-Alt Urgell

CURRENT METAR :
  • 191630Z 01003KT 300V070 9999 VCSH FEW040CB SCT070 19/14 Q1020

EXPIRED METARs :
  • 191600Z VRB04KT 9999 -RA FEW035CB SCT085 20/14 Q1019 RETS
  • 191530Z VRB02KT 9999 TS -SHRA FEW035CB SCT080 20/13 Q1019
  • 191502Z 20004KT 130V250 TS VCSH SCT035CB 20/12 Q1019
  • 191427Z 33011KT 290V010 TS VCSH SCT050CB 21/12 Q1018

TAF TAF LESU
Valid from the 19 at 15:00 until the 20 at 15:00 UTC


191400Z 1915/2015 VRB03KT 9999 SCT030 TX24/2013Z TN10/2005Z
TEMPO 1915/1917 19010KT
TEMPO 1915/1920 36015G30KT 4000 TSRA FEW030CB
PROB30
TEMPO 1922/2007 0500 FG BKN002
No reported NOTAMs for that airfield.



MET'MAP, your aeronautical weather chart ! - Copyright ORBIFLY December 2007 - Disclaimer

ORBIFLY MET'MAP TEAM :

Programming & Development : Alexandra Zaïnal
Concept & Development : Baudouin d'Aumeries
Co-Development & Prog : Marc-Olivier Méhu
Technical & hardware support : Manuel Goepfert

Contact : metmap@orbifly.com




SOURCES & CREDITS :

   NOAA